sensor_id;sensor_type;location;lat;lon;timestamp;P1;durP1;ratioP1;P2;durP2;ratioP2
52978;SDS011;63430;53.186;6.598;2023-04-01T00:02:04;49.65;;;46.90;;
52978;SDS011;63430;53.186;6.598;2023-04-01T00:04:07;43.05;;;40.80;;
52978;SDS011;63430;53.186;6.598;2023-04-01T00:06:11;40.15;;;38.22;;
52978;SDS011;63430;53.186;6.598;2023-04-01T00:08:17;42.88;;;40.70;;
52978;SDS011;63430;53.186;6.598;2023-04-01T00:10:20;51.10;;;48.65;;
52978;SDS011;63430;53.186;6.598;2023-04-01T00:12:22;43.63;;;41.45;;
52978;SDS011;63430;53.186;6.598;2023-04-01T00:16:30;42.15;;;40.05;;
52978;SDS011;63430;53.186;6.598;2023-04-01T00:18:36;44.28;;;42.10;;
52978;SDS011;63430;53.186;6.598;2023-04-01T00:20:44;43.50;;;41.05;;
52978;SDS011;63430;53.186;6.598;2023-04-01T00:22:47;49.90;;;47.45;;
52978;SDS011;63430;53.186;6.598;2023-04-01T00:24:50;54.17;;;51.50;;
52978;SDS011;63430;53.186;6.598;2023-04-01T00:26:53;44.97;;;42.58;;
52978;SDS011;63430;53.186;6.598;2023-04-01T00:28:57;54.83;;;52.03;;
52978;SDS011;63430;53.186;6.598;2023-04-01T00:31:03;54.60;;;51.75;;
52978;SDS011;63430;53.186;6.598;2023-04-01T00:33:07;46.67;;;44.40;;
52978;SDS011;63430;53.186;6.598;2023-04-01T00:35:12;54.08;;;51.28;;
52978;SDS011;63430;53.186;6.598;2023-04-01T00:37:15;48.03;;;45.67;;
52978;SDS011;63430;53.186;6.598;2023-04-01T00:39:18;46.67;;;44.13;;
52978;SDS011;63430;53.186;6.598;2023-04-01T00:41:21;53.08;;;50.30;;
52978;SDS011;63430;53.186;6.598;2023-04-01T00:43:24;48.05;;;45.50;;
52978;SDS011;63430;53.186;6.598;2023-04-01T00:45:30;54.42;;;51.75;;
52978;SDS011;63430;53.186;6.598;2023-04-01T00:47:45;41.88;;;39.70;;
52978;SDS011;63430;53.186;6.598;2023-04-01T00:49:49;46.95;;;44.42;;
52978;SDS011;63430;53.186;6.598;2023-04-01T00:51:57;46.78;;;44.15;;
52978;SDS011;63430;53.186;6.598;2023-04-01T00:54:03;54.08;;;51.25;;
52978;SDS011;63430;53.186;6.598;2023-04-01T00:56:22;47.65;;;45.25;;
52978;SDS011;63430;53.186;6.598;2023-04-01T00:58:29;47.25;;;44.75;;
52978;SDS011;63430;53.186;6.598;2023-04-01T01:00:37;60.53;;;57.53;;
52978;SDS011;63430;53.186;6.598;2023-04-01T01:02:44;50.63;;;48.08;;
52978;SDS011;63430;53.186;6.598;2023-04-01T01:04:48;54.97;;;52.25;;
52978;SDS011;63430;53.186;6.598;2023-04-01T01:06:52;56.80;;;54.00;;
52978;SDS011;63430;53.186;6.598;2023-04-01T01:09:10;77.95;;;74.22;;
52978;SDS011;63430;53.186;6.598;2023-04-01T01:11:22;51.13;;;48.42;;
52978;SDS011;63430;53.186;6.598;2023-04-01T01:13:46;63.10;;;60.00;;
52978;SDS011;63430;53.186;6.598;2023-04-01T01:15:59;53.80;;;50.85;;
52978;SDS011;63430;53.186;6.598;2023-04-01T01:18:07;61.72;;;58.65;;
52978;SDS011;63430;53.186;6.598;2023-04-01T01:25:59;54.35;;;51.63;;
52978;SDS011;63430;53.186;6.598;2023-04-01T01:28:32;56.83;;;53.85;;
52978;SDS011;63430;53.186;6.598;2023-04-01T01:30:50;56.40;;;53.40;;
52978;SDS011;63430;53.186;6.598;2023-04-01T01:33:01;57.50;;;54.70;;
52978;SDS011;63430;53.186;6.598;2023-04-01T01:35:22;49.75;;;46.92;;
52978;SDS011;63430;53.186;6.598;2023-04-01T01:37:28;56.60;;;53.80;;
52978;SDS011;63430;53.186;6.598;2023-04-01T01:39:33;52.33;;;49.63;;
52978;SDS011;63430;53.186;6.598;2023-04-01T01:41:38;65.13;;;61.85;;
52978;SDS011;63430;53.186;6.598;2023-04-01T01:43:44;61.38;;;58.40;;
52978;SDS011;63430;53.186;6.598;2023-04-01T01:45:57;54.30;;;51.38;;
52978;SDS011;63430;53.186;6.598;2023-04-01T01:48:02;56.80;;;54.00;;
52978;SDS011;63430;53.186;6.598;2023-04-01T01:50:08;65.63;;;62.28;;
52978;SDS011;63430;53.186;6.598;2023-04-01T01:52:16;53.40;;;50.65;;
52978;SDS011;63430;53.186;6.598;2023-04-01T01:54:20;53.10;;;50.45;;
52978;SDS011;63430;53.186;6.598;2023-04-01T01:56:23;58.35;;;55.10;;
52978;SDS011;63430;53.186;6.598;2023-04-01T01:58:30;61.05;;;57.95;;
52978;SDS011;63430;53.186;6.598;2023-04-01T02:00:37;62.40;;;59.30;;
52978;SDS011;63430;53.186;6.598;2023-04-01T02:02:47;57.13;;;54.22;;
52978;SDS011;63430;53.186;6.598;2023-04-01T02:04:52;56.03;;;53.08;;
52978;SDS011;63430;53.186;6.598;2023-04-01T02:06:58;52.65;;;49.85;;
52978;SDS011;63430;53.186;6.598;2023-04-01T02:09:07;61.55;;;58.58;;
52978;SDS011;63430;53.186;6.598;2023-04-01T02:11:17;64.25;;;61.03;;
52978;SDS011;63430;53.186;6.598;2023-04-01T02:13:26;64.90;;;61.47;;
52978;SDS011;63430;53.186;6.598;2023-04-01T02:15:33;60.60;;;57.50;;
52978;SDS011;63430;53.186;6.598;2023-04-01T02:17:39;54.00;;;51.40;;
52978;SDS011;63430;53.186;6.598;2023-04-01T02:19:48;54.72;;;51.60;;
52978;SDS011;63430;53.186;6.598;2023-04-01T02:21:55;59.25;;;56.30;;
52978;SDS011;63430;53.186;6.598;2023-04-01T02:24:01;60.33;;;57.38;;
52978;SDS011;63430;53.186;6.598;2023-04-01T02:26:10;62.30;;;59.35;;
52978;SDS011;63430;53.186;6.598;2023-04-01T02:28:14;58.97;;;55.85;;
52978;SDS011;63430;53.186;6.598;2023-04-01T02:30:21;67.28;;;63.92;;
52978;SDS011;63430;53.186;6.598;2023-04-01T02:32:27;54.25;;;51.50;;
52978;SDS011;63430;53.186;6.598;2023-04-01T02:34:31;53.83;;;51.13;;
52978;SDS011;63430;53.186;6.598;2023-04-01T02:36:35;58.55;;;55.42;;
52978;SDS011;63430;53.186;6.598;2023-04-01T02:38:39;67.40;;;64.13;;
52978;SDS011;63430;53.186;6.598;2023-04-01T02:40:46;64.05;;;60.92;;
52978;SDS011;63430;53.186;6.598;2023-04-01T02:42:54;61.60;;;58.40;;
52978;SDS011;63430;53.186;6.598;2023-04-01T02:44:57;60.45;;;57.38;;
52978;SDS011;63430;53.186;6.598;2023-04-01T02:46:59;76.90;;;73.00;;
52978;SDS011;63430;53.186;6.598;2023-04-01T02:49:02;63.78;;;60.53;;
52978;SDS011;63430;53.186;6.598;2023-04-01T02:51:06;62.13;;;59.20;;
52978;SDS011;63430;53.186;6.598;2023-04-01T02:53:10;60.70;;;57.47;;
52978;SDS011;63430;53.186;6.598;2023-04-01T02:55:13;68.20;;;64.65;;
52978;SDS011;63430;53.186;6.598;2023-04-01T02:57:16;61.00;;;58.00;;
52978;SDS011;63430;53.186;6.598;2023-04-01T02:59:21;62.65;;;59.53;;
52978;SDS011;63430;53.186;6.598;2023-04-01T03:01:24;58.05;;;55.22;;
52978;SDS011;63430;53.186;6.598;2023-04-01T03:03:27;64.55;;;61.22;;
52978;SDS011;63430;53.186;6.598;2023-04-01T03:05:30;62.33;;;59.28;;
52978;SDS011;63430;53.186;6.598;2023-04-01T03:07:33;64.20;;;61.00;;
52978;SDS011;63430;53.186;6.598;2023-04-01T03:09:37;79.72;;;75.88;;
52978;SDS011;63430;53.186;6.598;2023-04-01T03:11:40;66.85;;;63.15;;
52978;SDS011;63430;53.186;6.598;2023-04-01T03:13:43;56.88;;;53.92;;
52978;SDS011;63430;53.186;6.598;2023-04-01T03:15:49;62.03;;;58.78;;
52978;SDS011;63430;53.186;6.598;2023-04-01T03:17:54;63.80;;;60.50;;
52978;SDS011;63430;53.186;6.598;2023-04-01T03:19:57;62.45;;;59.17;;
52978;SDS011;63430;53.186;6.598;2023-04-01T03:22:00;66.03;;;62.63;;
52978;SDS011;63430;53.186;6.598;2023-04-01T03:24:03;59.30;;;56.20;;
52978;SDS011;63430;53.186;6.598;2023-04-01T03:26:13;56.78;;;53.58;;
52978;SDS011;63430;53.186;6.598;2023-04-01T03:28:16;67.93;;;64.38;;
52978;SDS011;63430;53.186;6.598;2023-04-01T03:30:19;61.47;;;58.13;;
52978;SDS011;63430;53.186;6.598;2023-04-01T03:32:27;59.78;;;56.35;;
52978;SDS011;63430;53.186;6.598;2023-04-01T03:34:34;60.25;;;56.85;;
52978;SDS011;63430;53.186;6.598;2023-04-01T03:36:37;59.35;;;55.97;;
52978;SDS011;63430;53.186;6.598;2023-04-01T03:38:40;70.25;;;66.57;;
52978;SDS011;63430;53.186;6.598;2023-04-01T03:40:46;67.22;;;63.65;;
52978;SDS011;63430;53.186;6.598;2023-04-01T03:42:49;58.35;;;55.25;;
52978;SDS011;63430;53.186;6.598;2023-04-01T03:44:55;57.03;;;53.83;;
52978;SDS011;63430;53.186;6.598;2023-04-01T03:46:58;61.95;;;58.35;;
52978;SDS011;63430;53.186;6.598;2023-04-01T03:49:10;72.10;;;68.28;;
52978;SDS011;63430;53.186;6.598;2023-04-01T03:51:17;67.22;;;63.53;;
52978;SDS011;63430;53.186;6.598;2023-04-01T03:53:19;74.70;;;70.65;;
52978;SDS011;63430;53.186;6.598;2023-04-01T03:55:22;70.55;;;66.38;;
52978;SDS011;63430;53.186;6.598;2023-04-01T03:57:30;61.55;;;58.17;;
52978;SDS011;63430;53.186;6.598;2023-04-01T03:59:40;69.97;;;66.30;;
52978;SDS011;63430;53.186;6.598;2023-04-01T04:01:47;79.55;;;75.32;;
52978;SDS011;63430;53.186;6.598;2023-04-01T04:03:50;70.38;;;66.43;;
52978;SDS011;63430;53.186;6.598;2023-04-01T04:05:55;78.78;;;74.72;;
52978;SDS011;63430;53.186;6.598;2023-04-01T04:07:58;68.40;;;64.43;;
52978;SDS011;63430;53.186;6.598;2023-04-01T04:10:01;77.65;;;73.55;;
52978;SDS011;63430;53.186;6.598;2023-04-01T04:12:06;74.00;;;70.30;;
52978;SDS011;63430;53.186;6.598;2023-04-01T04:14:09;78.00;;;74.00;;
52978;SDS011;63430;53.186;6.598;2023-04-01T04:16:14;86.25;;;81.93;;
52978;SDS011;63430;53.186;6.598;2023-04-01T04:18:22;76.82;;;72.82;;
52978;SDS011;63430;53.186;6.598;2023-04-01T04:20:26;84.68;;;80.28;;
52978;SDS011;63430;53.186;6.598;2023-04-01T04:22:33;75.30;;;71.18;;
52978;SDS011;63430;53.186;6.598;2023-04-01T04:24:39;80.63;;;76.53;;
52978;SDS011;63430;53.186;6.598;2023-04-01T04:26:44;76.13;;;71.90;;
52978;SDS011;63430;53.186;6.598;2023-04-01T04:28:47;98.60;;;93.63;;
52978;SDS011;63430;53.186;6.598;2023-04-01T04:30:52;90.43;;;85.63;;
52978;SDS011;63430;53.186;6.598;2023-04-01T04:32:55;79.60;;;75.32;;
52978;SDS011;63430;53.186;6.598;2023-04-01T04:34:57;103.40;;;98.07;;
52978;SDS011;63430;53.186;6.598;2023-04-01T04:37:00;84.00;;;79.45;;
52978;SDS011;63430;53.186;6.598;2023-04-01T04:39:10;81.80;;;77.60;;
52978;SDS011;63430;53.186;6.598;2023-04-01T04:41:16;78.50;;;74.47;;
52978;SDS011;63430;53.186;6.598;2023-04-01T04:43:23;88.15;;;83.45;;
52978;SDS011;63430;53.186;6.598;2023-04-01T04:45:26;78.57;;;74.30;;
52978;SDS011;63430;53.186;6.598;2023-04-01T04:47:34;76.70;;;72.30;;
52978;SDS011;63430;53.186;6.598;2023-04-01T04:49:37;87.85;;;83.03;;
52978;SDS011;63430;53.186;6.598;2023-04-01T04:51:44;94.18;;;88.78;;
52978;SDS011;63430;53.186;6.598;2023-04-01T04:53:49;84.10;;;79.57;;
52978;SDS011;63430;53.186;6.598;2023-04-01T04:55:59;132.65;;;126.07;;
52978;SDS011;63430;53.186;6.598;2023-04-01T04:58:14;90.40;;;85.75;;
52978;SDS011;63430;53.186;6.598;2023-04-01T05:00:18;99.68;;;94.40;;
52978;SDS011;63430;53.186;6.598;2023-04-01T05:02:30;109.43;;;103.78;;
52978;SDS011;63430;53.186;6.598;2023-04-01T05:04:34;83.32;;;79.18;;
52978;SDS011;63430;53.186;6.598;2023-04-01T05:06:39;97.32;;;91.53;;
52978;SDS011;63430;53.186;6.598;2023-04-01T05:08:43;72.25;;;68.25;;
52978;SDS011;63430;53.186;6.598;2023-04-01T05:10:46;95.82;;;90.47;;
52978;SDS011;63430;53.186;6.598;2023-04-01T05:12:53;105.60;;;100.47;;
52978;SDS011;63430;53.186;6.598;2023-04-01T05:14:57;102.85;;;97.75;;
52978;SDS011;63430;53.186;6.598;2023-04-01T05:17:07;105.10;;;99.85;;
52978;SDS011;63430;53.186;6.598;2023-04-01T05:19:12;105.57;;;100.35;;
52978;SDS011;63430;53.186;6.598;2023-04-01T05:21:17;100.78;;;95.78;;
52978;SDS011;63430;53.186;6.598;2023-04-01T05:25:27;73.30;;;69.35;;
52978;SDS011;63430;53.186;6.598;2023-04-01T05:27:30;102.13;;;97.05;;
52978;SDS011;63430;53.186;6.598;2023-04-01T05:29:37;103.47;;;98.03;;
52978;SDS011;63430;53.186;6.598;2023-04-01T05:31:42;106.32;;;101.13;;
52978;SDS011;63430;53.186;6.598;2023-04-01T05:33:47;103.88;;;98.82;;
52978;SDS011;63430;53.186;6.598;2023-04-01T05:35:50;102.40;;;97.07;;
52978;SDS011;63430;53.186;6.598;2023-04-01T05:37:53;94.80;;;90.13;;
52978;SDS011;63430;53.186;6.598;2023-04-01T05:39:59;109.88;;;104.55;;
52978;SDS011;63430;53.186;6.598;2023-04-01T05:42:05;91.97;;;87.53;;
52978;SDS011;63430;53.186;6.598;2023-04-01T05:44:10;87.85;;;83.45;;
52978;SDS011;63430;53.186;6.598;2023-04-01T05:46:18;90.53;;;86.05;;
52978;SDS011;63430;53.186;6.598;2023-04-01T05:48:28;111.85;;;106.40;;
52978;SDS011;63430;53.186;6.598;2023-04-01T05:50:30;92.78;;;88.10;;
52978;SDS011;63430;53.186;6.598;2023-04-01T05:52:34;129.77;;;123.18;;
52978;SDS011;63430;53.186;6.598;2023-04-01T05:54:38;103.95;;;98.85;;
52978;SDS011;63430;53.186;6.598;2023-04-01T05:56:41;107.45;;;102.20;;
52978;SDS011;63430;53.186;6.598;2023-04-01T05:58:44;78.25;;;74.25;;
52978;SDS011;63430;53.186;6.598;2023-04-01T06:00:52;111.15;;;105.75;;
52978;SDS011;63430;53.186;6.598;2023-04-01T06:03:14;100.60;;;95.65;;
52978;SDS011;63430;53.186;6.598;2023-04-01T06:05:19;102.60;;;97.30;;
52978;SDS011;63430;53.186;6.598;2023-04-01T06:07:23;98.30;;;93.38;;
52978;SDS011;63430;53.186;6.598;2023-04-01T06:09:27;98.80;;;94.00;;
52978;SDS011;63430;53.186;6.598;2023-04-01T06:11:33;95.05;;;90.38;;
52978;SDS011;63430;53.186;6.598;2023-04-01T06:13:50;84.32;;;80.13;;
52978;SDS011;63430;53.186;6.598;2023-04-01T06:16:14;105.40;;;100.03;;
52978;SDS011;63430;53.186;6.598;2023-04-01T06:20:59;111.60;;;105.90;;
52978;SDS011;63430;53.186;6.598;2023-04-01T06:23:22;143.70;;;135.93;;
52978;SDS011;63430;53.186;6.598;2023-04-01T06:31:02;76.65;;;72.28;;
52978;SDS011;63430;53.186;6.598;2023-04-01T06:33:19;64.40;;;60.60;;
52978;SDS011;63430;53.186;6.598;2023-04-01T06:35:39;99.43;;;94.25;;
52978;SDS011;63430;53.186;6.598;2023-04-01T06:38:00;118.25;;;112.07;;
52978;SDS011;63430;53.186;6.598;2023-04-01T06:40:21;121.78;;;115.57;;
52978;SDS011;63430;53.186;6.598;2023-04-01T06:42:50;196.50;;;183.98;;
52978;SDS011;63430;53.186;6.598;2023-04-01T06:45:50;158.57;;;149.82;;
52978;SDS011;63430;53.186;6.598;2023-04-01T06:48:18;111.88;;;105.97;;
52978;SDS011;63430;53.186;6.598;2023-04-01T06:50:56;117.65;;;111.45;;
52978;SDS011;63430;53.186;6.598;2023-04-01T06:53:31;132.77;;;125.72;;
52978;SDS011;63430;53.186;6.598;2023-04-01T06:56:00;71.50;;;67.40;;
52978;SDS011;63430;53.186;6.598;2023-04-01T06:58:19;134.13;;;126.75;;
52978;SDS011;63430;53.186;6.598;2023-04-01T07:00:26;74.43;;;70.35;;
52978;SDS011;63430;53.186;6.598;2023-04-01T07:02:32;79.53;;;75.07;;
52978;SDS011;63430;53.186;6.598;2023-04-01T07:04:42;167.45;;;158.55;;
52978;SDS011;63430;53.186;6.598;2023-04-01T07:06:53;101.70;;;96.30;;
52978;SDS011;63430;53.186;6.598;2023-04-01T07:08:58;86.68;;;81.90;;
52978;SDS011;63430;53.186;6.598;2023-04-01T07:11:29;108.25;;;102.50;;
52978;SDS011;63430;53.186;6.598;2023-04-01T07:13:55;115.75;;;109.80;;
52978;SDS011;63430;53.186;6.598;2023-04-01T07:16:07;107.95;;;102.15;;
52978;SDS011;63430;53.186;6.598;2023-04-01T07:18:17;127.43;;;120.63;;
52978;SDS011;63430;53.186;6.598;2023-04-01T07:20:24;110.25;;;103.93;;
52978;SDS011;63430;53.186;6.598;2023-04-01T07:22:33;111.85;;;106.07;;
52978;SDS011;63430;53.186;6.598;2023-04-01T07:24:47;73.25;;;69.05;;
52978;SDS011;63430;53.186;6.598;2023-04-01T07:26:52;101.45;;;95.95;;
52978;SDS011;63430;53.186;6.598;2023-04-01T07:28:58;144.07;;;136.32;;
52978;SDS011;63430;53.186;6.598;2023-04-01T07:31:18;95.65;;;90.40;;
52978;SDS011;63430;53.186;6.598;2023-04-01T07:33:29;136.80;;;129.55;;
52978;SDS011;63430;53.186;6.598;2023-04-01T07:35:43;205.07;;;194.03;;
52978;SDS011;63430;53.186;6.598;2023-04-01T07:37:58;110.72;;;104.85;;
52978;SDS011;63430;53.186;6.598;2023-04-01T07:40:16;95.43;;;90.00;;
52978;SDS011;63430;53.186;6.598;2023-04-01T07:42:27;115.22;;;108.78;;
52978;SDS011;63430;53.186;6.598;2023-04-01T07:44:39;114.63;;;108.50;;
52978;SDS011;63430;53.186;6.598;2023-04-01T07:46:57;98.55;;;93.07;;
52978;SDS011;63430;53.186;6.598;2023-04-01T07:49:07;109.68;;;103.97;;
52978;SDS011;63430;53.186;6.598;2023-04-01T07:51:17;96.80;;;91.53;;
52978;SDS011;63430;53.186;6.598;2023-04-01T07:53:29;124.32;;;117.88;;
52978;SDS011;63430;53.186;6.598;2023-04-01T07:55:39;92.00;;;87.03;;
52978;SDS011;63430;53.186;6.598;2023-04-01T07:57:48;84.57;;;79.82;;
52978;SDS011;63430;53.186;6.598;2023-04-01T07:59:59;84.47;;;79.90;;
52978;SDS011;63430;53.186;6.598;2023-04-01T08:02:26;122.00;;;115.72;;
52978;SDS011;63430;53.186;6.598;2023-04-01T08:04:39;85.82;;;81.00;;
52978;SDS011;63430;53.186;6.598;2023-04-01T08:06:53;50.13;;;46.83;;
52978;SDS011;63430;53.186;6.598;2023-04-01T08:09:09;104.30;;;98.88;;
52978;SDS011;63430;53.186;6.598;2023-04-01T08:11:41;65.95;;;62.20;;
52978;SDS011;63430;53.186;6.598;2023-04-01T08:14:20;73.25;;;69.22;;
52978;SDS011;63430;53.186;6.598;2023-04-01T08:17:08;87.47;;;82.47;;
52978;SDS011;63430;53.186;6.598;2023-04-01T08:19:28;95.97;;;90.22;;
52978;SDS011;63430;53.186;6.598;2023-04-01T08:21:38;115.20;;;108.40;;
52978;SDS011;63430;53.186;6.598;2023-04-01T08:23:46;63.30;;;59.63;;
52978;SDS011;63430;53.186;6.598;2023-04-01T08:25:56;65.03;;;61.45;;
52978;SDS011;63430;53.186;6.598;2023-04-01T08:28:11;80.28;;;75.90;;
52978;SDS011;63430;53.186;6.598;2023-04-01T08:30:20;68.55;;;64.68;;
52978;SDS011;63430;53.186;6.598;2023-04-01T08:32:28;78.53;;;73.70;;
52978;SDS011;63430;53.186;6.598;2023-04-01T08:34:36;41.72;;;39.22;;
52978;SDS011;63430;53.186;6.598;2023-04-01T08:36:46;48.17;;;45.20;;
52978;SDS011;63430;53.186;6.598;2023-04-01T08:39:02;54.35;;;51.20;;
52978;SDS011;63430;53.186;6.598;2023-04-01T08:41:24;78.72;;;74.25;;
52978;SDS011;63430;53.186;6.598;2023-04-01T08:44:04;63.67;;;59.95;;
52978;SDS011;63430;53.186;6.598;2023-04-01T08:49:16;50.50;;;47.60;;
52978;SDS011;63430;53.186;6.598;2023-04-01T08:51:44;46.97;;;44.08;;
52978;SDS011;63430;53.186;6.598;2023-04-01T08:54:10;59.55;;;56.25;;
52978;SDS011;63430;53.186;6.598;2023-04-01T08:56:39;63.60;;;60.00;;
52978;SDS011;63430;53.186;6.598;2023-04-01T08:58:58;74.55;;;70.60;;
52978;SDS011;63430;53.186;6.598;2023-04-01T09:01:16;35.65;;;33.45;;
52978;SDS011;63430;53.186;6.598;2023-04-01T09:03:37;41.17;;;38.63;;
52978;SDS011;63430;53.186;6.598;2023-04-01T09:06:02;39.42;;;37.03;;
52978;SDS011;63430;53.186;6.598;2023-04-01T09:08:27;28.50;;;26.60;;
52978;SDS011;63430;53.186;6.598;2023-04-01T09:10:42;115.63;;;109.03;;
52978;SDS011;63430;53.186;6.598;2023-04-01T09:16:09;36.15;;;34.33;;
52978;SDS011;63430;53.186;6.598;2023-04-01T09:21:04;45.70;;;43.42;;
52978;SDS011;63430;53.186;6.598;2023-04-01T09:23:27;88.75;;;84.03;;
52978;SDS011;63430;53.186;6.598;2023-04-01T09:25:46;49.50;;;46.67;;
52978;SDS011;63430;53.186;6.598;2023-04-01T09:28:02;71.00;;;67.50;;
52978;SDS011;63430;53.186;6.598;2023-04-01T09:32:54;77.85;;;73.45;;
52978;SDS011;63430;53.186;6.598;2023-04-01T09:35:20;48.50;;;45.97;;
52978;SDS011;63430;53.186;6.598;2023-04-01T09:37:32;35.13;;;33.25;;
52978;SDS011;63430;53.186;6.598;2023-04-01T09:39:46;42.40;;;40.28;;
52978;SDS011;63430;53.186;6.598;2023-04-01T09:44:51;130.90;;;122.43;;
52978;SDS011;63430;53.186;6.598;2023-04-01T09:47:01;38.35;;;36.22;;
52978;SDS011;63430;53.186;6.598;2023-04-01T09:51:58;26.40;;;25.02;;
52978;SDS011;63430;53.186;6.598;2023-04-01T09:54:17;59.95;;;56.40;;
52978;SDS011;63430;53.186;6.598;2023-04-01T09:59:39;29.48;;;27.73;;
52978;SDS011;63430;53.186;6.598;2023-04-01T10:05:11;52.92;;;50.33;;
52978;SDS011;63430;53.186;6.598;2023-04-01T10:07:50;34.60;;;32.63;;
52978;SDS011;63430;53.186;6.598;2023-04-01T10:10:19;54.42;;;50.72;;
52978;SDS011;63430;53.186;6.598;2023-04-01T10:12:49;22.55;;;21.48;;
52978;SDS011;63430;53.186;6.598;2023-04-01T10:15:20;32.20;;;30.65;;
52978;SDS011;63430;53.186;6.598;2023-04-01T10:17:45;102.22;;;95.38;;
52978;SDS011;63430;53.186;6.598;2023-04-01T10:30:55;39.63;;;37.60;;
52978;SDS011;63430;53.186;6.598;2023-04-01T10:33:27;38.67;;;36.63;;
52978;SDS011;63430;53.186;6.598;2023-04-01T10:44:58;23.90;;;22.65;;
52978;SDS011;63430;53.186;6.598;2023-04-01T10:47:32;17.92;;;17.00;;
52978;SDS011;63430;53.186;6.598;2023-04-01T10:52:33;80.40;;;74.32;;
52978;SDS011;63430;53.186;6.598;2023-04-01T10:56:17;24.48;;;23.00;;
52978;SDS011;63430;53.186;6.598;2023-04-01T10:59:13;76.55;;;71.72;;
52978;SDS011;63430;53.186;6.598;2023-04-01T11:18:50;20.77;;;19.67;;
52978;SDS011;63430;53.186;6.598;2023-04-01T11:24:02;41.28;;;38.63;;
52978;SDS011;63430;53.186;6.598;2023-04-01T11:26:29;71.18;;;67.28;;
52978;SDS011;63430;53.186;6.598;2023-04-01T11:29:07;33.30;;;31.10;;
52978;SDS011;63430;53.186;6.598;2023-04-01T11:31:35;15.15;;;13.98;;
52978;SDS011;63430;53.186;6.598;2023-04-01T11:33:46;23.10;;;21.90;;
52978;SDS011;63430;53.186;6.598;2023-04-01T11:36:11;85.80;;;79.05;;
52978;SDS011;63430;53.186;6.598;2023-04-01T11:38:33;17.48;;;16.23;;
52978;SDS011;63430;53.186;6.598;2023-04-01T11:41:13;27.70;;;26.15;;
52978;SDS011;63430;53.186;6.598;2023-04-01T11:43:49;16.48;;;15.32;;
52978;SDS011;63430;53.186;6.598;2023-04-01T11:46:19;22.23;;;21.02;;
52978;SDS011;63430;53.186;6.598;2023-04-01T11:48:33;29.90;;;28.20;;
52978;SDS011;63430;53.186;6.598;2023-04-01T11:53:17;16.98;;;16.08;;
52978;SDS011;63430;53.186;6.598;2023-04-01T11:55:31;32.88;;;30.92;;
52978;SDS011;63430;53.186;6.598;2023-04-01T12:00:24;75.70;;;70.20;;
52978;SDS011;63430;53.186;6.598;2023-04-01T12:02:50;17.10;;;16.20;;
52978;SDS011;63430;53.186;6.598;2023-04-01T12:05:26;30.40;;;28.83;;
52978;SDS011;63430;53.186;6.598;2023-04-01T12:07:45;61.20;;;58.08;;
52978;SDS011;63430;53.186;6.598;2023-04-01T12:09:59;14.02;;;13.10;;
52978;SDS011;63430;53.186;6.598;2023-04-01T12:12:15;28.35;;;26.63;;
52978;SDS011;63430;53.186;6.598;2023-04-01T12:14:27;31.83;;;29.60;;
52978;SDS011;63430;53.186;6.598;2023-04-01T12:16:44;38.30;;;35.95;;
52978;SDS011;63430;53.186;6.598;2023-04-01T12:18:56;47.47;;;44.97;;
52978;SDS011;63430;53.186;6.598;2023-04-01T12:21:04;15.48;;;14.57;;
52978;SDS011;63430;53.186;6.598;2023-04-01T12:28:29;70.57;;;65.25;;
52978;SDS011;63430;53.186;6.598;2023-04-01T12:33:10;35.75;;;33.80;;
52978;SDS011;63430;53.186;6.598;2023-04-01T12:35:39;27.90;;;26.25;;
52978;SDS011;63430;53.186;6.598;2023-04-01T12:37:57;13.93;;;13.13;;
52978;SDS011;63430;53.186;6.598;2023-04-01T12:40:18;14.45;;;13.65;;
52978;SDS011;63430;53.186;6.598;2023-04-01T12:42:38;43.65;;;40.88;;
52978;SDS011;63430;53.186;6.598;2023-04-01T12:45:00;22.10;;;21.00;;
52978;SDS011;63430;53.186;6.598;2023-04-01T12:47:27;12.50;;;11.80;;
52978;SDS011;63430;53.186;6.598;2023-04-01T12:50:06;11.38;;;10.73;;
52978;SDS011;63430;53.186;6.598;2023-04-01T12:52:21;38.90;;;36.58;;
52978;SDS011;63430;53.186;6.598;2023-04-01T13:00:20;23.45;;;22.13;;
52978;SDS011;63430;53.186;6.598;2023-04-01T13:02:36;23.10;;;21.90;;
52978;SDS011;63430;53.186;6.598;2023-04-01T13:04:55;25.30;;;23.95;;
52978;SDS011;63430;53.186;6.598;2023-04-01T13:07:28;12.43;;;11.75;;
52978;SDS011;63430;53.186;6.598;2023-04-01T13:09:53;11.00;;;10.30;;
52978;SDS011;63430;53.186;6.598;2023-04-01T13:12:07;33.88;;;31.35;;
52978;SDS011;63430;53.186;6.598;2023-04-01T13:14:40;26.67;;;25.02;;
52978;SDS011;63430;53.186;6.598;2023-04-01T13:17:10;98.20;;;90.80;;
52978;SDS011;63430;53.186;6.598;2023-04-01T13:19:21;15.80;;;14.90;;
52978;SDS011;63430;53.186;6.598;2023-04-01T13:21:34;15.07;;;14.27;;
52978;SDS011;63430;53.186;6.598;2023-04-01T13:23:49;13.15;;;12.10;;
52978;SDS011;63430;53.186;6.598;2023-04-01T13:26:04;35.28;;;33.22;;
52978;SDS011;63430;53.186;6.598;2023-04-01T13:28:17;14.20;;;13.45;;
52978;SDS011;63430;53.186;6.598;2023-04-01T13:30:24;34.60;;;32.78;;
52978;SDS011;63430;53.186;6.598;2023-04-01T13:32:32;26.02;;;24.63;;
52978;SDS011;63430;53.186;6.598;2023-04-01T13:34:48;28.33;;;26.65;;
52978;SDS011;63430;53.186;6.598;2023-04-01T13:37:04;10.95;;;10.35;;
52978;SDS011;63430;53.186;6.598;2023-04-01T13:39:21;16.67;;;15.77;;
52978;SDS011;63430;53.186;6.598;2023-04-01T13:41:42;11.27;;;10.45;;
52978;SDS011;63430;53.186;6.598;2023-04-01T13:43:58;19.63;;;18.63;;
52978;SDS011;63430;53.186;6.598;2023-04-01T13:46:07;16.23;;;15.30;;
52978;SDS011;63430;53.186;6.598;2023-04-01T13:48:37;17.10;;;16.10;;
52978;SDS011;63430;53.186;6.598;2023-04-01T13:50:58;17.73;;;16.63;;
52978;SDS011;63430;53.186;6.598;2023-04-01T13:55:53;10.30;;;9.75;;
52978;SDS011;63430;53.186;6.598;2023-04-01T13:58:07;18.08;;;17.17;;
52978;SDS011;63430;53.186;6.598;2023-04-01T14:00:32;22.67;;;21.40;;
52978;SDS011;63430;53.186;6.598;2023-04-01T14:02:46;35.58;;;33.60;;
52978;SDS011;63430;53.186;6.598;2023-04-01T14:05:17;18.40;;;17.50;;
52978;SDS011;63430;53.186;6.598;2023-04-01T14:07:48;19.52;;;18.38;;
52978;SDS011;63430;53.186;6.598;2023-04-01T14:10:07;11.90;;;11.18;;
52978;SDS011;63430;53.186;6.598;2023-04-01T14:12:25;10.45;;;9.88;;
52978;SDS011;63430;53.186;6.598;2023-04-01T14:14:39;44.85;;;42.53;;
52978;SDS011;63430;53.186;6.598;2023-04-01T14:19:29;30.83;;;29.33;;
52978;SDS011;63430;53.186;6.598;2023-04-01T14:21:42;17.05;;;16.10;;
52978;SDS011;63430;53.186;6.598;2023-04-01T14:23:58;29.13;;;27.40;;
52978;SDS011;63430;53.186;6.598;2023-04-01T14:26:26;13.02;;;12.32;;
52978;SDS011;63430;53.186;6.598;2023-04-01T14:28:39;33.42;;;31.48;;
52978;SDS011;63430;53.186;6.598;2023-04-01T14:30:51;10.68;;;10.02;;
52978;SDS011;63430;53.186;6.598;2023-04-01T14:33:21;15.25;;;14.35;;
52978;SDS011;63430;53.186;6.598;2023-04-01T14:35:38;16.92;;;16.08;;
52978;SDS011;63430;53.186;6.598;2023-04-01T14:40:27;8.20;;;7.70;;
52978;SDS011;63430;53.186;6.598;2023-04-01T14:42:45;14.10;;;13.40;;
52978;SDS011;63430;53.186;6.598;2023-04-01T14:45:12;11.88;;;11.18;;
52978;SDS011;63430;53.186;6.598;2023-04-01T14:49:49;10.52;;;9.90;;